sensor_id;sensor_type;location;lat;lon;timestamp;P1;durP1;ratioP1;P2;durP2;ratioP2
29954;SDS011;68448;51.188;6.868;2023-08-12T00:01:09;45.07;;;28.90;;
29954;SDS011;68448;51.188;6.868;2023-08-12T00:03:36;43.00;;;28.07;;
29954;SDS011;68448;51.188;6.868;2023-08-12T00:06:03;50.90;;;29.97;;
29954;SDS011;68448;51.188;6.868;2023-08-12T00:08:31;50.67;;;29.20;;
29954;SDS011;68448;51.188;6.868;2023-08-12T00:10:58;45.80;;;28.70;;
29954;SDS011;68448;51.188;6.868;2023-08-12T00:13:26;50.27;;;28.77;;
29954;SDS011;68448;51.188;6.868;2023-08-12T00:15:53;48.33;;;30.23;;
29954;SDS011;68448;51.188;6.868;2023-08-12T00:18:21;50.33;;;27.57;;
29954;SDS011;68448;51.188;6.868;2023-08-12T00:20:48;48.60;;;29.17;;
29954;SDS011;68448;51.188;6.868;2023-08-12T00:23:16;45.17;;;29.87;;
29954;SDS011;68448;51.188;6.868;2023-08-12T00:25:43;47.27;;;29.50;;
29954;SDS011;68448;51.188;6.868;2023-08-12T00:28:10;54.30;;;32.20;;
29954;SDS011;68448;51.188;6.868;2023-08-12T00:30:38;58.17;;;30.60;;
29954;SDS011;68448;51.188;6.868;2023-08-12T00:33:07;52.40;;;31.40;;
29954;SDS011;68448;51.188;6.868;2023-08-12T00:35:35;56.67;;;33.77;;
29954;SDS011;68448;51.188;6.868;2023-08-12T00:38:02;50.90;;;31.50;;
29954;SDS011;68448;51.188;6.868;2023-08-12T00:40:29;47.00;;;30.30;;
29954;SDS011;68448;51.188;6.868;2023-08-12T00:42:56;56.37;;;30.67;;
29954;SDS011;68448;51.188;6.868;2023-08-12T00:45:23;58.27;;;30.80;;
29954;SDS011;68448;51.188;6.868;2023-08-12T00:47:52;56.07;;;31.47;;
29954;SDS011;68448;51.188;6.868;2023-08-12T00:50:19;61.63;;;35.17;;
29954;SDS011;68448;51.188;6.868;2023-08-12T00:52:46;54.03;;;32.40;;
29954;SDS011;68448;51.188;6.868;2023-08-12T00:55:14;49.40;;;30.27;;
29954;SDS011;68448;51.188;6.868;2023-08-12T00:57:41;50.37;;;31.23;;
29954;SDS011;68448;51.188;6.868;2023-08-12T01:00:09;49.70;;;29.97;;
29954;SDS011;68448;51.188;6.868;2023-08-12T01:02:36;39.57;;;24.60;;
29954;SDS011;68448;51.188;6.868;2023-08-12T01:05:05;41.90;;;28.20;;
29954;SDS011;68448;51.188;6.868;2023-08-12T01:07:34;45.53;;;28.47;;
29954;SDS011;68448;51.188;6.868;2023-08-12T01:10:01;53.57;;;31.63;;
29954;SDS011;68448;51.188;6.868;2023-08-12T01:12:28;48.37;;;30.20;;
29954;SDS011;68448;51.188;6.868;2023-08-12T01:14:59;53.37;;;28.50;;
29954;SDS011;68448;51.188;6.868;2023-08-12T01:17:28;50.87;;;28.60;;
29954;SDS011;68448;51.188;6.868;2023-08-12T01:19:56;46.47;;;28.97;;
29954;SDS011;68448;51.188;6.868;2023-08-12T01:22:25;51.13;;;26.50;;
29954;SDS011;68448;51.188;6.868;2023-08-12T01:24:54;39.70;;;26.30;;
29954;SDS011;68448;51.188;6.868;2023-08-12T01:27:22;43.00;;;27.63;;
29954;SDS011;68448;51.188;6.868;2023-08-12T01:29:49;34.70;;;23.63;;
29954;SDS011;68448;51.188;6.868;2023-08-12T01:32:21;42.13;;;25.07;;
29954;SDS011;68448;51.188;6.868;2023-08-12T01:34:50;38.00;;;26.63;;
29954;SDS011;68448;51.188;6.868;2023-08-12T01:37:21;50.10;;;27.93;;
29954;SDS011;68448;51.188;6.868;2023-08-12T01:39:50;49.73;;;28.17;;
29954;SDS011;68448;51.188;6.868;2023-08-12T01:42:20;44.30;;;27.33;;
29954;SDS011;68448;51.188;6.868;2023-08-12T01:44:48;43.80;;;25.27;;
29954;SDS011;68448;51.188;6.868;2023-08-12T01:47:15;41.03;;;25.83;;
29954;SDS011;68448;51.188;6.868;2023-08-12T01:49:42;46.50;;;28.17;;
29954;SDS011;68448;51.188;6.868;2023-08-12T01:52:09;35.20;;;24.60;;
29954;SDS011;68448;51.188;6.868;2023-08-12T01:54:37;43.07;;;25.20;;
29954;SDS011;68448;51.188;6.868;2023-08-12T01:57:05;41.63;;;26.33;;
29954;SDS011;68448;51.188;6.868;2023-08-12T01:59:34;42.00;;;23.87;;
29954;SDS011;68448;51.188;6.868;2023-08-12T02:02:01;37.90;;;26.00;;
29954;SDS011;68448;51.188;6.868;2023-08-12T02:04:29;34.43;;;22.33;;
29954;SDS011;68448;51.188;6.868;2023-08-12T02:06:57;42.60;;;24.67;;
29954;SDS011;68448;51.188;6.868;2023-08-12T02:09:24;33.87;;;23.40;;
29954;SDS011;68448;51.188;6.868;2023-08-12T02:11:51;34.77;;;23.30;;
29954;SDS011;68448;51.188;6.868;2023-08-12T02:14:18;39.17;;;23.50;;
29954;SDS011;68448;51.188;6.868;2023-08-12T02:16:46;37.33;;;22.27;;
29954;SDS011;68448;51.188;6.868;2023-08-12T02:19:14;37.63;;;23.50;;
29954;SDS011;68448;51.188;6.868;2023-08-12T02:21:41;41.50;;;23.73;;
29954;SDS011;68448;51.188;6.868;2023-08-12T02:24:08;40.23;;;22.80;;
29954;SDS011;68448;51.188;6.868;2023-08-12T02:26:36;42.67;;;24.43;;
29954;SDS011;68448;51.188;6.868;2023-08-12T02:29:04;36.20;;;23.83;;
29954;SDS011;68448;51.188;6.868;2023-08-12T02:31:31;34.10;;;22.70;;
29954;SDS011;68448;51.188;6.868;2023-08-12T02:34:00;37.70;;;22.10;;
29954;SDS011;68448;51.188;6.868;2023-08-12T02:36:27;36.53;;;22.13;;
29954;SDS011;68448;51.188;6.868;2023-08-12T02:38:54;40.10;;;23.33;;
29954;SDS011;68448;51.188;6.868;2023-08-12T02:41:21;33.17;;;23.93;;
29954;SDS011;68448;51.188;6.868;2023-08-12T02:43:48;37.43;;;23.07;;
29954;SDS011;68448;51.188;6.868;2023-08-12T02:46:16;30.03;;;20.87;;
29954;SDS011;68448;51.188;6.868;2023-08-12T02:48:43;28.60;;;19.20;;
29954;SDS011;68448;51.188;6.868;2023-08-12T02:51:11;33.17;;;22.00;;
29954;SDS011;68448;51.188;6.868;2023-08-12T02:53:38;28.00;;;20.77;;
29954;SDS011;68448;51.188;6.868;2023-08-12T02:56:06;29.03;;;19.40;;
29954;SDS011;68448;51.188;6.868;2023-08-12T02:58:33;31.23;;;18.77;;
29954;SDS011;68448;51.188;6.868;2023-08-12T03:01:00;28.20;;;19.47;;
29954;SDS011;68448;51.188;6.868;2023-08-12T03:03:27;27.40;;;16.40;;
29954;SDS011;68448;51.188;6.868;2023-08-12T03:05:55;24.93;;;17.23;;
29954;SDS011;68448;51.188;6.868;2023-08-12T03:08:23;25.20;;;17.50;;
29954;SDS011;68448;51.188;6.868;2023-08-12T03:10:50;24.80;;;16.17;;
29954;SDS011;68448;51.188;6.868;2023-08-12T03:13:24;23.17;;;17.37;;
29954;SDS011;68448;51.188;6.868;2023-08-12T03:15:51;28.97;;;17.20;;
29954;SDS011;68448;51.188;6.868;2023-08-12T03:18:18;25.93;;;17.67;;
29954;SDS011;68448;51.188;6.868;2023-08-12T03:20:46;24.23;;;16.30;;
29954;SDS011;68448;51.188;6.868;2023-08-12T03:23:14;31.53;;;18.50;;
29954;SDS011;68448;51.188;6.868;2023-08-12T03:25:44;27.00;;;17.70;;
29954;SDS011;68448;51.188;6.868;2023-08-12T03:28:13;24.50;;;17.83;;
29954;SDS011;68448;51.188;6.868;2023-08-12T03:30:41;27.83;;;17.30;;
29954;SDS011;68448;51.188;6.868;2023-08-12T03:33:09;31.67;;;17.50;;
29954;SDS011;68448;51.188;6.868;2023-08-12T03:35:36;28.23;;;17.10;;
29954;SDS011;68448;51.188;6.868;2023-08-12T03:38:04;27.33;;;18.40;;
29954;SDS011;68448;51.188;6.868;2023-08-12T03:40:32;32.97;;;19.40;;
29954;SDS011;68448;51.188;6.868;2023-08-12T03:43:00;27.30;;;18.70;;
29954;SDS011;68448;51.188;6.868;2023-08-12T03:45:28;28.20;;;16.90;;
29954;SDS011;68448;51.188;6.868;2023-08-12T03:47:55;34.53;;;20.23;;
29954;SDS011;68448;51.188;6.868;2023-08-12T03:50:22;23.77;;;17.63;;
29954;SDS011;68448;51.188;6.868;2023-08-12T03:52:50;25.90;;;18.00;;
29954;SDS011;68448;51.188;6.868;2023-08-12T03:55:17;34.23;;;21.60;;
29954;SDS011;68448;51.188;6.868;2023-08-12T03:57:44;30.40;;;21.80;;
29954;SDS011;68448;51.188;6.868;2023-08-12T04:00:13;26.80;;;20.13;;
29954;SDS011;68448;51.188;6.868;2023-08-12T04:02:40;27.77;;;18.93;;
29954;SDS011;68448;51.188;6.868;2023-08-12T04:05:09;28.90;;;18.77;;
29954;SDS011;68448;51.188;6.868;2023-08-12T04:07:36;28.70;;;19.97;;
29954;SDS011;68448;51.188;6.868;2023-08-12T04:10:03;27.07;;;18.17;;
29954;SDS011;68448;51.188;6.868;2023-08-12T04:12:31;22.30;;;15.80;;
29954;SDS011;68448;51.188;6.868;2023-08-12T04:14:58;24.50;;;16.40;;
29954;SDS011;68448;51.188;6.868;2023-08-12T04:17:26;27.50;;;16.10;;
29954;SDS011;68448;51.188;6.868;2023-08-12T04:19:53;22.10;;;15.30;;
29954;SDS011;68448;51.188;6.868;2023-08-12T04:22:21;29.50;;;18.33;;
29954;SDS011;68448;51.188;6.868;2023-08-12T04:24:48;30.60;;;16.90;;
29954;SDS011;68448;51.188;6.868;2023-08-12T04:27:16;23.00;;;14.40;;
29954;SDS011;68448;51.188;6.868;2023-08-12T04:29:45;26.17;;;16.13;;
29954;SDS011;68448;51.188;6.868;2023-08-12T04:32:13;22.70;;;13.90;;
29954;SDS011;68448;51.188;6.868;2023-08-12T04:34:41;24.33;;;15.80;;
29954;SDS011;68448;51.188;6.868;2023-08-12T04:37:09;20.53;;;15.37;;
29954;SDS011;68448;51.188;6.868;2023-08-12T04:39:36;23.97;;;15.43;;
29954;SDS011;68448;51.188;6.868;2023-08-12T04:42:04;19.10;;;13.60;;
29954;SDS011;68448;51.188;6.868;2023-08-12T04:44:31;22.90;;;15.00;;
29954;SDS011;68448;51.188;6.868;2023-08-12T04:46:58;23.33;;;14.13;;
29954;SDS011;68448;51.188;6.868;2023-08-12T04:49:27;16.53;;;12.60;;
29954;SDS011;68448;51.188;6.868;2023-08-12T04:51:55;20.47;;;13.57;;
29954;SDS011;68448;51.188;6.868;2023-08-12T04:54:23;19.80;;;14.40;;
29954;SDS011;68448;51.188;6.868;2023-08-12T04:56:50;19.50;;;13.13;;
29954;SDS011;68448;51.188;6.868;2023-08-12T04:59:17;17.77;;;11.93;;
29954;SDS011;68448;51.188;6.868;2023-08-12T05:01:45;16.00;;;12.33;;
29954;SDS011;68448;51.188;6.868;2023-08-12T05:04:29;17.97;;;12.03;;
29954;SDS011;68448;51.188;6.868;2023-08-12T05:06:58;15.10;;;11.40;;
29954;SDS011;68448;51.188;6.868;2023-08-12T05:09:25;18.63;;;11.80;;
29954;SDS011;68448;51.188;6.868;2023-08-12T05:11:52;16.37;;;12.20;;
29954;SDS011;68448;51.188;6.868;2023-08-12T05:14:19;15.77;;;11.90;;
29954;SDS011;68448;51.188;6.868;2023-08-12T05:16:47;21.23;;;11.00;;
29954;SDS011;68448;51.188;6.868;2023-08-12T05:19:14;14.90;;;11.20;;
29954;SDS011;68448;51.188;6.868;2023-08-12T05:21:41;21.03;;;14.20;;
29954;SDS011;68448;51.188;6.868;2023-08-12T05:24:10;19.00;;;14.33;;
29954;SDS011;68448;51.188;6.868;2023-08-12T05:26:37;21.80;;;14.37;;
29954;SDS011;68448;51.188;6.868;2023-08-12T05:29:05;20.00;;;12.87;;
29954;SDS011;68448;51.188;6.868;2023-08-12T05:31:32;22.40;;;14.40;;
29954;SDS011;68448;51.188;6.868;2023-08-12T05:33:59;19.97;;;12.60;;
29954;SDS011;68448;51.188;6.868;2023-08-12T05:36:26;21.40;;;13.97;;
29954;SDS011;68448;51.188;6.868;2023-08-12T05:38:53;18.17;;;12.87;;
29954;SDS011;68448;51.188;6.868;2023-08-12T05:41:22;16.47;;;11.73;;
29954;SDS011;68448;51.188;6.868;2023-08-12T05:43:49;20.80;;;14.17;;
29954;SDS011;68448;51.188;6.868;2023-08-12T05:46:16;16.20;;;12.27;;
29954;SDS011;68448;51.188;6.868;2023-08-12T05:48:43;20.70;;;14.73;;
29954;SDS011;68448;51.188;6.868;2023-08-12T05:51:10;19.83;;;15.20;;
29954;SDS011;68448;51.188;6.868;2023-08-12T05:53:37;18.87;;;13.67;;
29954;SDS011;68448;51.188;6.868;2023-08-12T05:56:04;18.30;;;13.40;;
29954;SDS011;68448;51.188;6.868;2023-08-12T05:58:33;21.37;;;14.40;;
29954;SDS011;68448;51.188;6.868;2023-08-12T06:01:00;15.00;;;11.63;;
29954;SDS011;68448;51.188;6.868;2023-08-12T06:03:27;19.17;;;12.53;;
29954;SDS011;68448;51.188;6.868;2023-08-12T06:05:54;19.17;;;13.30;;
29954;SDS011;68448;51.188;6.868;2023-08-12T06:08:21;21.53;;;11.90;;
29954;SDS011;68448;51.188;6.868;2023-08-12T06:10:49;16.87;;;12.67;;
29954;SDS011;68448;51.188;6.868;2023-08-12T06:13:16;16.97;;;13.13;;
29954;SDS011;68448;51.188;6.868;2023-08-12T06:15:44;18.10;;;12.67;;
29954;SDS011;68448;51.188;6.868;2023-08-12T06:18:11;23.97;;;13.60;;
29954;SDS011;68448;51.188;6.868;2023-08-12T06:20:39;19.90;;;13.90;;
29954;SDS011;68448;51.188;6.868;2023-08-12T06:23:06;23.33;;;16.83;;
29954;SDS011;68448;51.188;6.868;2023-08-12T06:25:33;21.93;;;16.20;;
29954;SDS011;68448;51.188;6.868;2023-08-12T06:28:00;27.40;;;17.33;;
29954;SDS011;68448;51.188;6.868;2023-08-12T06:30:27;23.10;;;15.30;;
29954;SDS011;68448;51.188;6.868;2023-08-12T06:32:56;26.67;;;15.47;;
29954;SDS011;68448;51.188;6.868;2023-08-12T06:35:23;21.37;;;14.57;;
29954;SDS011;68448;51.188;6.868;2023-08-12T06:37:50;27.40;;;17.33;;
29954;SDS011;68448;51.188;6.868;2023-08-12T06:40:17;21.90;;;15.43;;
29954;SDS011;68448;51.188;6.868;2023-08-12T06:42:44;34.67;;;17.43;;
29954;SDS011;68448;51.188;6.868;2023-08-12T06:45:11;23.20;;;16.27;;
29954;SDS011;68448;51.188;6.868;2023-08-12T06:47:39;25.13;;;16.70;;
29954;SDS011;68448;51.188;6.868;2023-08-12T06:50:07;30.90;;;18.03;;
29954;SDS011;68448;51.188;6.868;2023-08-12T06:52:35;26.30;;;16.17;;
29954;SDS011;68448;51.188;6.868;2023-08-12T06:55:02;25.63;;;16.80;;
29954;SDS011;68448;51.188;6.868;2023-08-12T06:57:29;26.53;;;18.90;;
29954;SDS011;68448;51.188;6.868;2023-08-12T06:59:56;24.57;;;18.70;;
29954;SDS011;68448;51.188;6.868;2023-08-12T07:02:23;26.17;;;17.20;;
29954;SDS011;68448;51.188;6.868;2023-08-12T07:04:50;21.80;;;16.27;;
29954;SDS011;68448;51.188;6.868;2023-08-12T07:07:19;26.43;;;17.87;;
29954;SDS011;68448;51.188;6.868;2023-08-12T07:09:46;23.37;;;16.37;;
29954;SDS011;68448;51.188;6.868;2023-08-12T07:12:13;18.70;;;14.53;;
29954;SDS011;68448;51.188;6.868;2023-08-12T07:14:40;16.33;;;11.57;;
29954;SDS011;68448;51.188;6.868;2023-08-12T07:17:07;17.43;;;13.43;;
29954;SDS011;68448;51.188;6.868;2023-08-12T07:19:34;15.50;;;12.10;;
29954;SDS011;68448;51.188;6.868;2023-08-12T07:22:02;20.80;;;12.13;;
29954;SDS011;68448;51.188;6.868;2023-08-12T07:24:30;16.40;;;11.77;;
29954;SDS011;68448;51.188;6.868;2023-08-12T07:26:57;16.53;;;12.67;;
29954;SDS011;68448;51.188;6.868;2023-08-12T07:29:24;17.17;;;12.67;;
29954;SDS011;68448;51.188;6.868;2023-08-12T07:31:52;17.03;;;12.23;;
29954;SDS011;68448;51.188;6.868;2023-08-12T07:34:19;17.50;;;12.30;;
29954;SDS011;68448;51.188;6.868;2023-08-12T07:36:46;12.40;;;11.00;;
29954;SDS011;68448;51.188;6.868;2023-08-12T07:39:13;16.23;;;12.23;;
29954;SDS011;68448;51.188;6.868;2023-08-12T07:41:41;13.17;;;10.57;;
29954;SDS011;68448;51.188;6.868;2023-08-12T07:44:08;17.03;;;10.37;;
29954;SDS011;68448;51.188;6.868;2023-08-12T07:46:36;11.03;;;9.90;;
29954;SDS011;68448;51.188;6.868;2023-08-12T07:49:03;12.77;;;10.03;;
29954;SDS011;68448;51.188;6.868;2023-08-12T07:51:30;16.83;;;10.53;;
29954;SDS011;68448;51.188;6.868;2023-08-12T07:53:57;12.33;;;9.00;;
29954;SDS011;68448;51.188;6.868;2023-08-12T07:56:24;11.47;;;9.53;;
29954;SDS011;68448;51.188;6.868;2023-08-12T07:58:53;13.20;;;8.70;;
29954;SDS011;68448;51.188;6.868;2023-08-12T08:01:20;10.97;;;9.80;;
29954;SDS011;68448;51.188;6.868;2023-08-12T08:03:47;13.70;;;8.30;;
29954;SDS011;68448;51.188;6.868;2023-08-12T08:06:14;11.50;;;8.27;;
29954;SDS011;68448;51.188;6.868;2023-08-12T08:08:41;9.07;;;7.37;;
29954;SDS011;68448;51.188;6.868;2023-08-12T08:11:08;8.30;;;7.30;;
29954;SDS011;68448;51.188;6.868;2023-08-12T08:13:36;7.97;;;7.17;;
29954;SDS011;68448;51.188;6.868;2023-08-12T08:16:04;7.87;;;6.23;;
29954;SDS011;68448;51.188;6.868;2023-08-12T08:18:31;8.07;;;6.27;;
29954;SDS011;68448;51.188;6.868;2023-08-12T08:20:58;9.37;;;6.07;;
29954;SDS011;68448;51.188;6.868;2023-08-12T08:23:31;7.40;;;6.10;;
29954;SDS011;68448;51.188;6.868;2023-08-12T08:25:58;6.87;;;5.57;;
29954;SDS011;68448;51.188;6.868;2023-08-12T08:28:25;5.90;;;5.30;;
29954;SDS011;68448;51.188;6.868;2023-08-12T08:30:52;9.33;;;5.10;;
29954;SDS011;68448;51.188;6.868;2023-08-12T08:33:20;6.97;;;5.77;;
29954;SDS011;68448;51.188;6.868;2023-08-12T08:35:47;4.97;;;4.57;;
29954;SDS011;68448;51.188;6.868;2023-08-12T08:38:15;6.40;;;4.93;;
29954;SDS011;68448;51.188;6.868;2023-08-12T08:40:42;7.33;;;4.50;;
29954;SDS011;68448;51.188;6.868;2023-08-12T08:43:09;5.23;;;4.50;;
29954;SDS011;68448;51.188;6.868;2023-08-12T08:45:36;4.83;;;3.70;;
29954;SDS011;68448;51.188;6.868;2023-08-12T08:48:04;5.33;;;4.73;;
29954;SDS011;68448;51.188;6.868;2023-08-12T08:50:33;4.30;;;3.80;;
29954;SDS011;68448;51.188;6.868;2023-08-12T08:53:00;5.70;;;4.10;;
29954;SDS011;68448;51.188;6.868;2023-08-12T08:55:28;7.40;;;4.30;;
29954;SDS011;68448;51.188;6.868;2023-08-12T08:57:56;5.97;;;4.07;;
29954;SDS011;68448;51.188;6.868;2023-08-12T09:00:26;5.70;;;3.83;;
29954;SDS011;68448;51.188;6.868;2023-08-12T09:02:54;7.10;;;3.57;;
29954;SDS011;68448;51.188;6.868;2023-08-12T09:05:21;5.17;;;4.10;;
29954;SDS011;68448;51.188;6.868;2023-08-12T09:07:50;6.27;;;3.90;;
29954;SDS011;68448;51.188;6.868;2023-08-12T09:10:18;8.30;;;4.00;;
29954;SDS011;68448;51.188;6.868;2023-08-12T09:12:47;5.90;;;3.83;;
29954;SDS011;68448;51.188;6.868;2023-08-12T09:15:15;6.23;;;3.97;;
29954;SDS011;68448;51.188;6.868;2023-08-12T09:17:43;6.93;;;4.10;;
29954;SDS011;68448;51.188;6.868;2023-08-12T09:20:10;4.27;;;3.87;;
29954;SDS011;68448;51.188;6.868;2023-08-12T09:22:37;5.47;;;3.83;;
29954;SDS011;68448;51.188;6.868;2023-08-12T09:25:07;4.70;;;4.30;;
29954;SDS011;68448;51.188;6.868;2023-08-12T09:27:35;6.00;;;3.40;;
29954;SDS011;68448;51.188;6.868;2023-08-12T09:30:02;7.37;;;4.37;;
29954;SDS011;68448;51.188;6.868;2023-08-12T09:32:29;4.80;;;4.00;;
29954;SDS011;68448;51.188;6.868;2023-08-12T09:34:57;5.83;;;3.70;;
29954;SDS011;68448;51.188;6.868;2023-08-12T09:37:24;5.07;;;3.20;;
29954;SDS011;68448;51.188;6.868;2023-08-12T09:39:51;4.53;;;3.50;;
29954;SDS011;68448;51.188;6.868;2023-08-12T09:42:20;3.57;;;3.27;;
29954;SDS011;68448;51.188;6.868;2023-08-12T09:44:47;8.27;;;3.47;;
29954;SDS011;68448;51.188;6.868;2023-08-12T09:47:14;4.37;;;3.07;;
29954;SDS011;68448;51.188;6.868;2023-08-12T09:49:41;3.57;;;2.80;;
29954;SDS011;68448;51.188;6.868;2023-08-12T09:52:08;4.80;;;3.10;;
29954;SDS011;68448;51.188;6.868;2023-08-12T09:54:36;6.27;;;3.07;;
29954;SDS011;68448;51.188;6.868;2023-08-12T09:57:05;3.80;;;3.00;;
29954;SDS011;68448;51.188;6.868;2023-08-12T09:59:36;3.73;;;2.57;;
29954;SDS011;68448;51.188;6.868;2023-08-12T10:02:04;3.33;;;2.50;;
29954;SDS011;68448;51.188;6.868;2023-08-12T10:04:33;3.17;;;2.77;;
29954;SDS011;68448;51.188;6.868;2023-08-12T10:07:02;3.70;;;2.60;;
29954;SDS011;68448;51.188;6.868;2023-08-12T10:09:29;3.50;;;2.07;;
29954;SDS011;68448;51.188;6.868;2023-08-12T10:11:57;7.43;;;2.53;;
29954;SDS011;68448;51.188;6.868;2023-08-12T10:14:25;2.60;;;2.33;;
29954;SDS011;68448;51.188;6.868;2023-08-12T10:16:53;3.90;;;2.43;;
29954;SDS011;68448;51.188;6.868;2023-08-12T10:19:31;2.37;;;1.90;;
29954;SDS011;68448;51.188;6.868;2023-08-12T10:21:58;2.50;;;2.30;;
29954;SDS011;68448;51.188;6.868;2023-08-12T10:24:26;3.00;;;2.30;;
29954;SDS011;68448;51.188;6.868;2023-08-12T10:26:53;3.63;;;2.40;;
29954;SDS011;68448;51.188;6.868;2023-08-12T10:29:22;3.60;;;2.10;;
29954;SDS011;68448;51.188;6.868;2023-08-12T10:31:49;3.73;;;2.10;;
29954;SDS011;68448;51.188;6.868;2023-08-12T10:34:22;2.17;;;1.97;;
29954;SDS011;68448;51.188;6.868;2023-08-12T10:36:53;3.00;;;2.43;;
29954;SDS011;68448;51.188;6.868;2023-08-12T10:39:29;2.50;;;1.87;;
29954;SDS011;68448;51.188;6.868;2023-08-12T10:41:58;4.77;;;2.07;;
29954;SDS011;68448;51.188;6.868;2023-08-12T10:44:26;1.70;;;1.60;;
29954;SDS011;68448;51.188;6.868;2023-08-12T10:46:53;3.40;;;1.83;;
29954;SDS011;68448;51.188;6.868;2023-08-12T10:49:22;3.43;;;1.40;;
29954;SDS011;68448;51.188;6.868;2023-08-12T10:51:50;2.23;;;1.53;;
29954;SDS011;68448;51.188;6.868;2023-08-12T10:54:18;3.27;;;1.63;;
29954;SDS011;68448;51.188;6.868;2023-08-12T10:59:48;6.90;;;1.80;;
29954;SDS011;68448;51.188;6.868;2023-08-12T11:02:15;1.40;;;1.30;;
29954;SDS011;68448;51.188;6.868;2023-08-12T11:04:44;1.53;;;1.40;;
29954;SDS011;68448;51.188;6.868;2023-08-12T11:07:15;4.23;;;1.87;;
29954;SDS011;68448;51.188;6.868;2023-08-12T11:09:42;2.20;;;2.00;;
29954;SDS011;68448;51.188;6.868;2023-08-12T11:12:09;4.33;;;1.90;;
29954;SDS011;68448;51.188;6.868;2023-08-12T11:14:46;3.03;;;2.23;;
29954;SDS011;68448;51.188;6.868;2023-08-12T11:17:14;2.00;;;1.80;;
29954;SDS011;68448;51.188;6.868;2023-08-12T11:19:41;2.10;;;1.60;;
29954;SDS011;68448;51.188;6.868;2023-08-12T11:22:10;2.03;;;1.70;;
29954;SDS011;68448;51.188;6.868;2023-08-12T11:24:40;2.70;;;2.20;;
29954;SDS011;68448;51.188;6.868;2023-08-12T11:27:09;3.00;;;2.40;;
29954;SDS011;68448;51.188;6.868;2023-08-12T11:29:36;3.40;;;3.07;;
29954;SDS011;68448;51.188;6.868;2023-08-12T11:32:04;3.20;;;2.07;;
29954;SDS011;68448;51.188;6.868;2023-08-12T11:34:32;2.60;;;2.40;;
29954;SDS011;68448;51.188;6.868;2023-08-12T11:36:59;1.87;;;1.63;;
29954;SDS011;68448;51.188;6.868;2023-08-12T11:39:29;1.87;;;1.63;;
29954;SDS011;68448;51.188;6.868;2023-08-12T11:41:56;1.63;;;1.53;;
29954;SDS011;68448;51.188;6.868;2023-08-12T11:44:23;1.87;;;1.77;;
29954;SDS011;68448;51.188;6.868;2023-08-12T11:46:51;2.40;;;1.40;;
29954;SDS011;68448;51.188;6.868;2023-08-12T11:49:18;1.60;;;1.47;;
29954;SDS011;68448;51.188;6.868;2023-08-12T11:51:46;1.60;;;1.50;;
29954;SDS011;68448;51.188;6.868;2023-08-12T11:54:14;2.90;;;1.23;;
29954;SDS011;68448;51.188;6.868;2023-08-12T11:56:43;1.40;;;1.30;;
29954;SDS011;68448;51.188;6.868;2023-08-12T11:59:10;2.60;;;1.47;;
29954;SDS011;68448;51.188;6.868;2023-08-12T12:01:37;3.07;;;1.70;;
29954;SDS011;68448;51.188;6.868;2023-08-12T12:04:04;1.43;;;1.20;;
29954;SDS011;68448;51.188;6.868;2023-08-12T12:06:32;2.00;;;1.43;;
29954;SDS011;68448;51.188;6.868;2023-08-12T12:09:00;1.87;;;1.63;;
29954;SDS011;68448;51.188;6.868;2023-08-12T12:11:27;1.30;;;1.20;;
29954;SDS011;68448;51.188;6.868;2023-08-12T12:13:56;1.60;;;1.50;;
29954;SDS011;68448;51.188;6.868;2023-08-12T12:16:23;1.50;;;1.40;;
29954;SDS011;68448;51.188;6.868;2023-08-12T12:18:56;1.30;;;1.20;;
29954;SDS011;68448;51.188;6.868;2023-08-12T12:21:24;1.50;;;1.40;;
29954;SDS011;68448;51.188;6.868;2023-08-12T12:23:52;3.00;;;1.50;;
29954;SDS011;68448;51.188;6.868;2023-08-12T12:26:19;1.40;;;1.30;;
29954;SDS011;68448;51.188;6.868;2023-08-12T12:28:46;2.20;;;1.20;;
29954;SDS011;68448;51.188;6.868;2023-08-12T12:31:15;3.70;;;1.50;;
29954;SDS011;68448;51.188;6.868;2023-08-12T12:33:42;1.53;;;1.43;;
29954;SDS011;68448;51.188;6.868;2023-08-12T12:36:09;1.10;;;1.10;;
29954;SDS011;68448;51.188;6.868;2023-08-12T12:38:36;1.73;;;1.13;;
29954;SDS011;68448;51.188;6.868;2023-08-12T12:41:03;1.93;;;1.10;;
29954;SDS011;68448;51.188;6.868;2023-08-12T12:43:30;1.27;;;1.17;;
29954;SDS011;68448;51.188;6.868;2023-08-12T12:45:57;2.10;;;1.73;;
29954;SDS011;68448;51.188;6.868;2023-08-12T12:48:26;1.30;;;1.20;;
29954;SDS011;68448;51.188;6.868;2023-08-12T12:50:53;1.73;;;1.63;;
29954;SDS011;68448;51.188;6.868;2023-08-12T12:53:20;2.10;;;1.60;;
29954;SDS011;68448;51.188;6.868;2023-08-12T12:55:47;2.20;;;1.97;;
29954;SDS011;68448;51.188;6.868;2023-08-12T12:58:15;2.37;;;2.17;;
29954;SDS011;68448;51.188;6.868;2023-08-12T13:00:42;2.20;;;2.00;;
29954;SDS011;68448;51.188;6.868;2023-08-12T13:03:09;2.10;;;1.90;;
29954;SDS011;68448;51.188;6.868;2023-08-12T13:05:37;3.30;;;3.00;;
29954;SDS011;68448;51.188;6.868;2023-08-12T13:08:05;9.03;;;2.90;;
29954;SDS011;68448;51.188;6.868;2023-08-12T13:10:32;18.60;;;4.73;;
29954;SDS011;68448;51.188;6.868;2023-08-12T13:13:00;5.87;;;3.90;;
29954;SDS011;68448;51.188;6.868;2023-08-12T13:15:27;5.10;;;4.60;;
29954;SDS011;68448;51.188;6.868;2023-08-12T13:17:54;6.40;;;5.40;;
29954;SDS011;68448;51.188;6.868;2023-08-12T13:20:22;9.60;;;6.30;;
29954;SDS011;68448;51.188;6.868;2023-08-12T13:22:50;6.00;;;5.40;;
29954;SDS011;68448;51.188;6.868;2023-08-12T13:25:17;7.17;;;6.23;;
29954;SDS011;68448;51.188;6.868;2023-08-12T13:27:45;7.60;;;6.53;;
29954;SDS011;68448;51.188;6.868;2023-08-12T13:30:12;6.60;;;5.90;;
29954;SDS011;68448;51.188;6.868;2023-08-12T13:32:39;6.80;;;6.10;;
29954;SDS011;68448;51.188;6.868;2023-08-12T13:35:06;7.10;;;6.03;;
29954;SDS011;68448;51.188;6.868;2023-08-12T13:37:34;8.00;;;7.20;;
29954;SDS011;68448;51.188;6.868;2023-08-12T13:40:02;7.37;;;6.20;;
29954;SDS011;68448;51.188;6.868;2023-08-12T13:42:29;6.80;;;6.20;;
29954;SDS011;68448;51.188;6.868;2023-08-12T13:44:57;7.17;;;6.30;;
29954;SDS011;68448;51.188;6.868;2023-08-12T13:47:26;6.53;;;5.60;;
29954;SDS011;68448;51.188;6.868;2023-08-12T13:49:53;6.73;;;6.00;;
29954;SDS011;68448;51.188;6.868;2023-08-12T13:52:20;7.23;;;5.73;;
29954;SDS011;68448;51.188;6.868;2023-08-12T13:54:47;6.97;;;5.33;;
29954;SDS011;68448;51.188;6.868;2023-08-12T13:57:16;6.70;;;5.70;;
29954;SDS011;68448;51.188;6.868;2023-08-12T13:59:43;5.60;;;5.10;;
29954;SDS011;68448;51.188;6.868;2023-08-12T14:02:10;5.43;;;4.93;;
29954;SDS011;68448;51.188;6.868;2023-08-12T14:04:38;4.60;;;4.20;;
29954;SDS011;68448;51.188;6.868;2023-08-12T14:07:05;5.07;;;4.57;;
29954;SDS011;68448;51.188;6.868;2023-08-12T14:09:32;3.80;;;3.50;;
29954;SDS011;68448;51.188;6.868;2023-08-12T14:11:59;4.40;;;2.93;;
29954;SDS011;68448;51.188;6.868;2023-08-12T14:14:28;3.03;;;2.60;;
29954;SDS011;68448;51.188;6.868;2023-08-12T14:16:56;2.63;;;2.43;;
29954;SDS011;68448;51.188;6.868;2023-08-12T14:19:23;2.53;;;2.33;;
29954;SDS011;68448;51.188;6.868;2023-08-12T14:21:51;3.03;;;2.80;;
29954;SDS011;68448;51.188;6.868;2023-08-12T14:24:18;8.07;;;3.10;;
29954;SDS011;68448;51.188;6.868;2023-08-12T14:26:45;3.60;;;3.30;;
29954;SDS011;68448;51.188;6.868;2023-08-12T14:29:12;2.93;;;2.73;;
29954;SDS011;68448;51.188;6.868;2023-08-12T14:31:40;2.87;;;2.67;;
29954;SDS011;68448;51.188;6.868;2023-08-12T14:34:08;5.93;;;4.23;;
29954;SDS011;68448;51.188;6.868;2023-08-12T14:36:35;2.70;;;2.50;;
29954;SDS011;68448;51.188;6.868;2023-08-12T14:39:02;2.23;;;1.60;;